createdAt,value
2022-11-25T00:01:56.102Z,63.00
2022-11-25T00:04:38.506Z,63.17
2022-11-25T00:07:14.488Z,63.70
2022-11-25T00:09:51.908Z,62.27
2022-11-25T00:12:28.694Z,64.47
2022-11-25T00:15:07.076Z,64.00
2022-11-25T00:17:43.988Z,63.53
2022-11-25T00:20:25.334Z,61.97
2022-11-25T00:23:05.993Z,61.87
2022-11-25T00:25:42.831Z,60.67
2022-11-25T00:28:20.907Z,60.87
2022-11-25T00:31:04.374Z,64.07
2022-11-25T00:33:41.093Z,66.13
2022-11-25T00:36:25.640Z,63.97
2022-11-25T00:39:02.584Z,65.67
2022-11-25T00:41:54.538Z,67.70
2022-11-25T00:44:42.222Z,63.77
2022-11-25T00:47:22.972Z,65.27
2022-11-25T00:50:05.644Z,66.23
2022-11-25T00:52:44.462Z,67.27
2022-11-25T00:55:48.170Z,66.83
2022-11-25T00:58:26.385Z,65.07
2022-11-25T01:01:14.069Z,63.43
2022-11-25T01:03:57.507Z,64.83
2022-11-25T01:06:36.582Z,61.80
2022-11-25T01:09:17.072Z,64.80
2022-11-25T01:11:57.125Z,62.70
2022-11-25T01:14:36.015Z,62.93
2022-11-25T01:17:19.051Z,62.80
2022-11-25T01:20:01.119Z,65.83
2022-11-25T01:22:41.448Z,63.57
2022-11-25T01:25:24.038Z,62.97
2022-11-25T01:28:02.112Z,65.57
2022-11-25T01:30:51.228Z,68.03
2022-11-25T01:33:28.014Z,65.80
2022-11-25T01:36:11.832Z,62.30
2022-11-25T01:38:57.521Z,63.87
2022-11-25T01:41:41.793Z,64.23
2022-11-25T01:44:22.017Z,66.40
2022-11-25T01:47:17.006Z,65.47
2022-11-25T01:50:01.027Z,64.43
2022-11-25T01:52:47.393Z,64.67
2022-11-25T01:55:31.814Z,64.10
2022-11-25T01:58:28.659Z,68.93
2022-11-25T02:01:06.385Z,70.87
2022-11-25T02:03:54.528Z,70.53
2022-11-25T02:06:49.455Z,69.10
2022-11-25T02:09:31.784Z,69.97
2022-11-25T02:12:27.031Z,66.43
2022-11-25T02:15:12.050Z,71.70
2022-11-25T02:17:51.321Z,70.03
2022-11-25T02:20:30.463Z,74.70
2022-11-25T02:23:19.388Z,68.90
2022-11-25T02:26:03.823Z,69.47
2022-11-25T02:28:42.287Z,76.73
2022-11-25T02:31:31.934Z,83.47
2022-11-25T02:34:23.993Z,89.03
2022-11-25T02:37:06.960Z,89.40
2022-11-25T02:39:44.211Z,92.63
2022-11-25T02:42:32.307Z,90.43
2022-11-25T02:45:11.783Z,96.57
2022-11-25T02:47:48.858Z,94.63
2022-11-25T02:50:32.213Z,99.70
2022-11-25T02:53:12.692Z,97.50
2022-11-25T02:55:51.089Z,97.10
2022-11-25T02:58:39.521Z,95.27
2022-11-25T03:01:30.071Z,97.37
2022-11-25T03:04:15.465Z,93.43
2022-11-25T03:07:00.159Z,87.60
2022-11-25T03:09:37.361Z,84.57
2022-11-25T03:12:25.484Z,79.37
2022-11-25T03:15:06.324Z,83.17
2022-11-25T03:17:43.935Z,79.70
2022-11-25T03:20:27.070Z,77.97
2022-11-25T03:23:08.387Z,82.00
2022-11-25T03:25:48.131Z,82.30
2022-11-25T03:28:25.485Z,81.23
2022-11-25T03:31:09.237Z,80.80
2022-11-25T03:33:47.250Z,79.90
2022-11-25T03:36:28.316Z,82.93
2022-11-25T03:39:14.167Z,80.67
2022-11-25T03:41:52.470Z,85.70
2022-11-25T03:44:39.503Z,87.40
2022-11-25T03:47:25.269Z,92.23
2022-11-25T03:50:12.738Z,91.63
2022-11-25T03:52:56.729Z,91.87
2022-11-25T03:55:34.791Z,90.50
2022-11-25T03:58:31.849Z,90.90
2022-11-25T04:01:18.263Z,88.10
2022-11-25T04:04:07.470Z,88.33
2022-11-25T04:06:57.133Z,87.37
2022-11-25T04:09:38.804Z,88.30
2022-11-25T04:12:37.238Z,88.73
2022-11-25T04:15:18.705Z,88.20
2022-11-25T04:18:08.414Z,88.37
2022-11-25T04:20:59.908Z,89.00
2022-11-25T04:23:44.579Z,86.40
2022-11-25T04:26:29.545Z,86.50
2022-11-25T04:29:18.855Z,87.63
2022-11-25T04:32:06.305Z,93.23
2022-11-25T04:34:51.733Z,88.83
2022-11-25T04:37:44.137Z,90.07
2022-11-25T04:40:23.903Z,91.73
2022-11-25T04:43:18.643Z,90.70
2022-11-25T04:46:16.375Z,91.17
2022-11-25T04:49:05.251Z,91.60
2022-11-25T04:51:56.218Z,89.83
2022-11-25T04:54:55.720Z,91.87
2022-11-25T04:57:38.705Z,92.53
2022-11-25T05:00:19.456Z,93.03
2022-11-25T06:17:28.553Z,105.80
2022-11-25T06:20:20.422Z,105.93
2022-11-25T06:23:05.749Z,105.53
2022-11-25T06:26:01.492Z,106.03
2022-11-25T06:28:46.265Z,106.63
2022-11-25T06:31:27.043Z,104.53
2022-11-25T06:34:26.470Z,105.33
2022-11-25T06:37:17.381Z,107.40
2022-11-25T06:40:00.981Z,108.30
2022-11-25T06:42:45.192Z,108.60
2022-11-25T06:45:23.051Z,107.53
2022-11-25T06:48:06.149Z,110.30
2022-11-25T06:50:56.672Z,110.13
2022-11-25T06:53:35.899Z,111.03
2022-11-25T06:56:20.636Z,105.60
2022-11-25T06:59:01.059Z,108.10
2022-11-25T07:01:51.452Z,107.83
2022-11-25T07:04:33.050Z,111.30
2022-11-25T07:07:28.340Z,110.67
2022-11-25T07:10:06.229Z,110.20
2022-11-25T07:12:49.831Z,117.80
2022-11-25T07:15:28.539Z,109.80
2022-11-25T07:18:17.576Z,112.77
2022-11-25T07:20:57.407Z,115.37
2022-11-25T07:23:41.821Z,112.20
2022-11-25T07:26:23.315Z,115.50
2022-11-25T07:29:13.915Z,115.50
2022-11-25T07:32:10.682Z,114.07
2022-11-25T07:34:53.102Z,114.97
2022-11-25T07:37:30.194Z,117.20
2022-11-25T07:40:20.492Z,116.03
2022-11-25T07:43:03.807Z,116.27
2022-11-25T07:45:50.485Z,116.47
2022-11-25T07:48:29.454Z,118.03
2022-11-25T07:51:10.704Z,117.70
2022-11-25T07:53:47.975Z,114.70
2022-11-25T07:56:34.745Z,117.93
2022-11-25T07:59:22.588Z,115.00
2022-11-25T08:02:04.834Z,113.73
2022-11-25T08:04:49.311Z,116.17
2022-11-25T08:07:32.028Z,116.67
2022-11-25T08:10:17.900Z,115.00
2022-11-25T08:13:09.668Z,115.43
2022-11-25T08:15:51.084Z,115.73
2022-11-25T08:18:39.105Z,115.37
2022-11-25T08:21:25.193Z,115.27
2022-11-25T08:24:09.210Z,118.40
2022-11-25T08:27:00.630Z,116.60
2022-11-25T08:29:54.279Z,114.77
2022-11-25T08:32:36.698Z,116.77
2022-11-25T08:35:17.128Z,113.70
2022-11-25T08:38:05.270Z,115.77
2022-11-25T08:40:44.090Z,116.30
2022-11-25T08:43:27.916Z,117.37
2022-11-25T08:46:22.573Z,113.70
2022-11-25T08:49:00.493Z,112.57
2022-11-25T08:51:47.191Z,116.13
2022-11-25T08:54:37.424Z,113.70
2022-11-25T08:57:18.158Z,113.90
2022-11-25T08:59:55.197Z,113.60
2022-11-25T09:02:35.046Z,114.20
2022-11-25T09:05:27.079Z,115.23
2022-11-25T09:08:18.624Z,111.47
2022-11-25T09:11:03.051Z,111.53
2022-11-25T09:13:48.190Z,111.73
2022-11-25T09:16:35.965Z,111.67
2022-11-25T09:19:29.050Z,114.40
2022-11-25T09:22:09.016Z,114.43
2022-11-25T09:24:48.285Z,116.10
2022-11-25T09:27:31.877Z,115.10
2022-11-25T09:30:17.892Z,115.57
2022-11-25T09:33:03.739Z,115.63
2022-11-25T09:35:44.495Z,117.57
2022-11-25T09:38:25.128Z,113.70
2022-11-25T09:41:14.190Z,114.63
2022-11-25T09:44:14.824Z,118.83
2022-11-25T09:47:07.702Z,117.23
2022-11-25T09:50:14.195Z,120.00
2022-11-25T09:53:09.362Z,116.70
2022-11-25T09:55:59.978Z,119.70
2022-11-25T09:58:50.867Z,118.47
2022-11-25T10:02:04.681Z,119.47
2022-11-25T10:04:50.461Z,120.47
2022-11-25T10:07:43.606Z,123.70
2022-11-25T10:10:44.040Z,120.23
2022-11-25T10:13:36.151Z,120.90
2022-11-25T10:16:30.710Z,118.60
2022-11-25T10:19:18.043Z,123.27
2022-11-25T10:22:03.304Z,118.23
2022-11-25T10:24:56.393Z,119.60
2022-11-25T10:27:49.133Z,118.33
2022-11-25T10:30:28.036Z,116.93
2022-11-25T10:33:19.000Z,122.27
2022-11-25T10:36:34.598Z,120.50
2022-11-25T10:39:28.627Z,116.90
2022-11-25T10:42:11.542Z,117.97
2022-11-25T10:45:01.145Z,120.57
2022-11-25T10:48:08.965Z,117.70
2022-11-25T10:51:06.007Z,119.93
2022-11-25T10:53:47.988Z,118.63
2022-11-25T10:56:27.806Z,119.17
2022-11-25T10:59:29.122Z,119.80
2022-11-25T11:02:45.285Z,120.50
2022-11-25T11:05:39.387Z,116.83
2022-11-25T11:08:47.957Z,120.83
2022-11-25T11:11:31.851Z,120.23
2022-11-25T11:14:37.324Z,122.60
2022-11-25T11:17:50.394Z,120.40
2022-11-25T11:20:35.111Z,121.87
2022-11-25T11:23:21.406Z,122.43
2022-11-25T11:26:17.271Z,119.93
2022-11-25T11:29:20.082Z,123.10
2022-11-25T11:32:15.522Z,119.67
2022-11-25T11:35:44.543Z,121.20
2022-11-25T11:38:55.604Z,120.03
2022-11-25T11:41:52.011Z,121.33
2022-11-25T11:44:41.212Z,120.93
2022-11-25T11:47:29.730Z,122.47
2022-11-25T11:50:53.762Z,119.70
2022-11-25T11:53:57.180Z,123.57
2022-11-25T11:57:13.581Z,118.93
2022-11-25T12:00:20.821Z,118.43
2022-11-25T12:03:33.107Z,117.83
2022-11-25T12:06:22.533Z,118.23
2022-11-25T12:09:30.114Z,120.47
2022-11-25T12:12:23.323Z,120.53
2022-11-25T12:15:21.560Z,119.07
2022-11-25T12:18:05.589Z,119.50
2022-11-25T12:25:41.556Z,121.20
2022-11-25T12:28:50.950Z,116.83
2022-11-25T12:31:45.465Z,121.53
2022-11-25T12:34:41.802Z,120.00
2022-11-25T12:37:33.179Z,123.70
2022-11-25T12:40:18.940Z,123.20
2022-11-25T12:43:08.852Z,125.13
2022-11-25T12:45:53.932Z,123.13
2022-11-25T12:49:17.065Z,123.20
2022-11-25T12:52:28.841Z,127.37
2022-11-25T12:55:28.096Z,123.27
2022-11-25T12:58:36.210Z,123.80
2022-11-25T13:01:41.300Z,124.67
2022-11-25T13:05:40.497Z,123.97
2022-11-25T13:08:26.452Z,125.30
2022-11-25T13:11:34.778Z,126.27
2022-11-25T13:14:36.835Z,123.50
2022-11-25T13:17:31.135Z,128.17
2022-11-25T13:20:58.236Z,130.07
2022-11-25T13:23:49.261Z,125.13
2022-11-25T13:26:58.879Z,121.33
2022-11-25T13:30:07.826Z,125.50
2022-11-25T13:32:54.411Z,126.97
2022-11-25T13:35:49.149Z,128.20
2022-11-25T13:39:03.950Z,125.07
2022-11-25T13:42:05.395Z,125.70
2022-11-25T13:45:02.915Z,126.77
2022-11-25T13:48:11.675Z,127.70
2022-11-25T13:51:29.146Z,128.70
2022-11-25T13:54:19.926Z,129.13
2022-11-25T13:57:42.103Z,125.40
2022-11-25T14:01:10.677Z,129.50
2022-11-25T14:04:26.333Z,128.17
2022-11-25T14:07:29.443Z,126.70
2022-11-25T14:10:48.453Z,128.77
2022-11-25T14:14:04.246Z,131.63
2022-11-25T14:17:12.582Z,131.77
2022-11-25T14:20:16.004Z,132.47
2022-11-25T14:23:32.075Z,132.03
2022-11-25T14:26:47.703Z,134.27
2022-11-25T14:29:28.049Z,129.57
2022-11-25T14:32:34.778Z,130.83
2022-11-25T14:35:31.859Z,132.17
2022-11-25T14:38:22.692Z,132.17
2022-11-25T14:41:16.410Z,133.63
2022-11-25T14:44:13.766Z,131.93
2022-11-25T14:47:07.089Z,132.90
2022-11-25T14:50:26.633Z,131.03
2022-11-25T14:53:04.527Z,130.10
2022-11-25T14:56:05.817Z,128.63
2022-11-25T14:58:52.361Z,130.53
2022-11-25T15:01:38.599Z,132.63
2022-11-25T15:04:25.839Z,131.47
2022-11-25T15:07:38.688Z,130.07
2022-11-25T15:10:42.485Z,129.20
2022-11-25T15:13:46.675Z,130.13
2022-11-25T15:16:36.508Z,130.53
2022-11-25T15:19:33.289Z,128.83
2022-11-25T15:22:23.946Z,126.50
2022-11-25T15:25:14.055Z,125.30
2022-11-25T15:28:04.560Z,126.93
2022-11-25T15:30:46.886Z,128.10
2022-11-25T15:33:30.107Z,130.60
2022-11-25T15:36:22.624Z,124.83
2022-11-25T15:39:21.187Z,122.67
2022-11-25T15:42:16.837Z,125.80
2022-11-25T15:45:07.127Z,124.33
2022-11-25T15:48:04.367Z,121.10
2022-11-25T15:50:54.509Z,123.67
2022-11-25T15:53:46.783Z,124.20
2022-11-25T15:56:32.297Z,121.60
2022-11-25T15:59:34.022Z,118.30
2022-11-25T16:02:32.880Z,120.63
2022-11-25T16:05:38.338Z,119.73
2022-11-25T16:08:51.206Z,120.53
2022-11-25T16:11:39.551Z,119.67
2022-11-25T16:14:38.487Z,120.17
2022-11-25T16:17:23.250Z,119.37
2022-11-25T16:20:04.212Z,123.13
2022-11-25T16:22:55.576Z,117.47
2022-11-25T16:25:47.558Z,116.80
2022-11-25T16:28:57.066Z,113.47
2022-11-25T16:31:42.144Z,117.80
2022-11-25T16:34:33.266Z,114.33
2022-11-25T16:37:18.966Z,115.17
2022-11-25T16:40:02.548Z,111.10
2022-11-25T16:42:45.743Z,113.27
2022-11-25T16:45:28.259Z,112.40
2022-11-25T16:48:09.544Z,116.23
2022-11-25T16:50:49.540Z,112.30
2022-11-25T16:53:30.918Z,115.77
2022-11-25T16:56:21.071Z,110.00
2022-11-25T16:59:05.890Z,112.67
2022-11-25T17:01:55.249Z,114.40
2022-11-25T17:04:36.674Z,115.00
2022-11-25T17:07:32.763Z,113.93
2022-11-25T17:10:12.873Z,110.10
2022-11-25T17:12:59.232Z,114.50
2022-11-25T17:15:42.907Z,112.03
2022-11-25T17:18:24.556Z,114.20
2022-11-25T17:21:07.127Z,108.93
2022-11-25T17:23:55.273Z,111.90
2022-11-25T17:26:47.988Z,111.20
2022-11-25T17:29:36.016Z,109.60
2022-11-25T17:32:32.821Z,112.33
2022-11-25T17:35:33.104Z,111.63
2022-11-25T17:38:23.628Z,109.07
2022-11-25T17:41:03.344Z,111.17
2022-11-25T17:43:47.085Z,109.73
2022-11-25T17:46:31.431Z,111.50
2022-11-25T17:49:18.971Z,110.93
2022-11-25T17:52:06.924Z,108.17
2022-11-25T17:54:51.162Z,110.57
2022-11-25T17:57:31.759Z,111.50
2022-11-25T18:00:09.885Z,109.00
2022-11-25T18:06:42.596Z,106.80
2022-11-25T18:09:19.580Z,103.07
2022-11-25T18:11:59.478Z,102.00
2022-11-25T18:14:40.398Z,105.20
2022-11-25T18:17:23.400Z,101.53
2022-11-25T18:20:12.381Z,105.87
2022-11-25T18:22:50.578Z,104.77
2022-11-25T18:25:37.137Z,104.77
2022-11-25T18:28:15.873Z,101.80
2022-11-25T18:30:53.441Z,106.00
2022-11-25T18:33:33.849Z,107.63
2022-11-25T18:36:24.197Z,105.10
2022-11-25T18:39:02.809Z,102.23
2022-11-25T18:41:39.493Z,102.10
2022-11-25T18:44:26.489Z,102.33
2022-11-25T18:47:03.896Z,103.17
2022-11-25T18:49:41.398Z,101.70
2022-11-25T18:52:22.348Z,99.00
2022-11-25T18:54:58.708Z,101.73
2022-11-25T18:57:35.407Z,100.77
2022-11-25T19:00:31.761Z,98.97
2022-11-25T19:03:09.653Z,101.03
2022-11-25T19:05:46.999Z,103.90
2022-11-25T19:08:28.396Z,104.83
2022-11-25T19:11:04.527Z,105.40
2022-11-25T19:13:42.724Z,102.33
2022-11-25T19:16:22.691Z,106.30
2022-11-25T19:18:59.592Z,109.33
2022-11-25T19:21:36.603Z,108.20
2022-11-25T19:24:20.564Z,109.17
2022-11-25T19:26:58.721Z,107.00
2022-11-25T19:29:42.241Z,108.40
2022-11-25T19:32:25.856Z,104.27
2022-11-25T19:35:05.325Z,107.27
2022-11-25T19:37:42.560Z,109.53
2022-11-25T19:40:27.189Z,106.63
2022-11-25T19:43:04.603Z,109.57
2022-11-25T19:45:42.209Z,108.37
2022-11-25T19:51:21.697Z,111.63
2022-11-25T19:53:58.897Z,109.53
2022-11-25T19:56:39.466Z,105.67
2022-11-25T19:59:16.650Z,111.97
2022-11-25T20:01:54.319Z,108.67
2022-11-25T20:04:31.558Z,108.90
2022-11-25T20:07:08.807Z,109.23
2022-11-25T20:09:45.504Z,107.37
2022-11-25T20:12:27.506Z,108.07
2022-11-25T20:15:04.745Z,110.80
2022-11-25T20:17:41.772Z,106.30
2022-11-25T20:20:22.015Z,108.53
2022-11-25T20:23:01.861Z,105.27
2022-11-25T20:25:39.094Z,105.37
2022-11-25T20:28:21.916Z,104.47
2022-11-25T20:30:58.034Z,104.60
2022-11-25T20:33:33.454Z,104.40
2022-11-25T20:36:11.860Z,106.77
2022-11-25T20:38:51.387Z,104.37
2022-11-25T20:41:28.183Z,104.03
2022-11-25T20:44:06.376Z,106.27
2022-11-25T20:46:41.990Z,102.80
2022-11-25T20:49:27.470Z,103.97
2022-11-25T20:52:03.301Z,104.37
2022-11-25T20:54:38.570Z,104.20
2022-11-25T20:57:16.002Z,105.20
2022-11-25T20:59:54.123Z,104.23
2022-11-25T21:02:29.188Z,101.30
2022-11-25T21:05:03.890Z,100.20
2022-11-25T21:07:39.800Z,103.73
2022-11-25T21:10:27.863Z,104.60
2022-11-25T21:13:07.967Z,105.47
2022-11-25T21:15:44.542Z,101.87
2022-11-25T21:18:19.962Z,101.17
2022-11-25T21:20:56.924Z,101.03
2022-11-25T21:23:35.068Z,99.37
2022-11-25T21:26:12.194Z,100.50
2022-11-25T21:28:49.404Z,106.87
2022-11-25T21:31:28.829Z,103.83
2022-11-25T21:34:06.051Z,100.23
2022-11-25T21:36:41.443Z,101.30
2022-11-25T21:39:28.471Z,103.23
2022-11-25T21:42:06.182Z,102.33
2022-11-25T21:44:42.824Z,101.70
2022-11-25T21:47:22.558Z,100.23
2022-11-25T21:49:58.758Z,99.90
2022-11-25T21:52:34.895Z,102.27
2022-11-25T21:55:09.885Z,99.87
2022-11-25T21:57:46.652Z,100.30
2022-11-25T22:00:31.142Z,101.20
2022-11-25T22:03:09.579Z,98.10
2022-11-25T22:05:45.401Z,98.73
2022-11-25T22:08:22.750Z,101.63
2022-11-25T22:11:00.291Z,101.17
2022-11-25T22:13:40.037Z,104.27
2022-11-25T22:16:22.238Z,100.17
2022-11-25T22:19:01.996Z,101.93
2022-11-25T22:21:37.742Z,102.80
2022-11-25T22:24:21.093Z,102.00
2022-11-25T22:26:58.698Z,99.17
2022-11-25T22:29:39.610Z,100.80
2022-11-25T22:32:18.878Z,100.17
2022-11-25T22:38:25.706Z,99.57
2022-11-25T22:41:05.568Z,104.30
2022-11-25T22:43:46.196Z,101.53
2022-11-25T22:46:24.349Z,102.13
2022-11-25T22:49:01.628Z,102.10
2022-11-25T22:51:40.969Z,102.37
2022-11-25T22:54:19.286Z,102.40
2022-11-25T22:56:56.924Z,103.43
2022-11-25T22:59:33.203Z,102.47
2022-11-25T23:02:10.866Z,102.07
2022-11-25T23:04:47.204Z,103.43
2022-11-25T23:07:28.059Z,99.67
2022-11-25T23:10:05.586Z,104.10
2022-11-25T23:12:42.820Z,104.50
2022-11-25T23:15:24.479Z,102.70
2022-11-25T23:18:03.355Z,104.27
2022-11-25T23:20:42.337Z,102.40
2022-11-25T23:23:27.240Z,101.90
2022-11-25T23:26:05.505Z,100.10
2022-11-25T23:28:42.916Z,104.03
2022-11-25T23:31:21.722Z,102.80
2022-11-25T23:33:58.678Z,104.20
2022-11-25T23:36:41.849Z,104.80
2022-11-25T23:39:32.472Z,100.83
2022-11-25T23:42:10.003Z,104.47
2022-11-25T23:44:47.231Z,101.57
2022-11-25T23:47:27.963Z,101.37
2022-11-25T23:50:06.687Z,103.20
2022-11-25T23:52:43.104Z,104.63
2022-11-25T23:55:29.513Z,103.20
2022-11-25T23:58:08.717Z,103.60
